Estación Meteorológica Peña el Pijo (Robertgarden) [ 05/25/18 13:04:17 CEST ]

Fecha Hora Presion(HPa) Temp (°C) Humedad % Rocio (°C) Viento ( m/s) Direccion Lluvia 1Hora(mm) Lluvia 24H(mm) LLuvia Total(mm)
2018-May-22 01:01:43 1006.400 7.3 82 4.4       2.07 218.07
2018-May-22 02:01:39 1006.000 6.9 84 4.4       2.07 218.07
2018-May-22 03:01:39 1005.900 6.6 84 4.1       2.07 218.07
2018-May-22 04:05:07 1005.800 6.3 85 3.9       2.07 218.07
2018-May-22 05:01:52 1005.500 6.3 86 4.1       2.07 218.07
2018-May-22 06:01:43 1005.400 6.4 87 4.4       2.07 218.07
2018-May-22 07:01:39 1005.600 6.5 87 4.5       2.07 218.07
2018-May-22 08:01:35 1006.300 8.1 89 6.4       2.07 218.07
2018-May-22 09:01:36 1006.300 12.9 88 10.9       2.07 218.07
2018-May-22 10:01:32 1006.500 18.2 67 12.0       2.07 218.07
2018-May-22 11:01:39 1006.300 22.6 49 11.3 1.0 NE   2.07 218.07
2018-May-22 12:01:37 1006.300 24.6 40 10.1       2.07 218.07
2018-May-22 13:01:52 1006.300 23.3 41 9.3       2.07 218.07
2018-May-22 14:01:46 1006.400 22.6 42 9.0       2.07 218.07
2018-May-22 15:01:50 1006.200 27.2 32 9.0       1.55 218.07
2018-May-22 16:01:51 1006.000 26.4 35 9.6         218.07
2018-May-22 17:01:49 1005.500 25.3 35 8.6         218.07
2018-May-22 18:01:58 1005.800 22.9 38 7.8         218.07
2018-May-22 19:01:52 1005.900 22.1 42 8.5         218.07
2018-May-22 20:02:07 1006.200 21.1 42 7.6         218.07
2018-May-22 21:01:40 1006.500 19.1 49 8.2         218.07
2018-May-22 22:01:46 1007.200 17.5 54 8.0         218.07
2018-May-22 23:01:39 1008.200 15.6 62 8.4         218.07

Temperatura Máxima:27°    Temperatura Mínima:
Presión Máxima:1008.200 Hpa    Presión Mínima:1005.400 Hpa


Volver